createdAt,value
2019-02-14T00:02:31.025Z,0.30
2019-02-14T00:05:32.222Z,0.20
2019-02-14T00:08:32.673Z,0.20
2019-02-14T00:11:33.662Z,0.30
2019-02-14T00:14:34.437Z,0.30
2019-02-14T00:17:34.918Z,0.20
2019-02-14T00:20:35.297Z,0.10
2019-02-14T00:23:35.721Z,0.10
2019-02-14T00:26:36.950Z,0.00
2019-02-14T00:29:37.323Z,0.00
2019-02-14T00:32:37.624Z,-0.20
2019-02-14T00:35:37.941Z,-0.10
2019-02-14T00:38:38.838Z,0.10
2019-02-14T00:41:39.176Z,0.10
2019-02-14T00:44:39.494Z,0.00
2019-02-14T00:47:40.623Z,0.00
2019-02-14T00:50:41.355Z,-0.20
2019-02-14T00:53:41.843Z,-0.30
2019-02-14T00:56:42.411Z,-0.40
2019-02-14T00:59:43.557Z,-0.40
2019-02-14T01:02:44.454Z,-0.20
2019-02-14T01:05:45.389Z,-0.20
2019-02-14T01:08:45.825Z,-0.20
2019-02-14T01:11:46.298Z,-0.30
2019-02-14T01:14:47.221Z,-0.30
2019-02-14T01:17:47.516Z,-0.30
2019-02-14T01:20:48.134Z,-0.30
2019-02-14T01:23:48.996Z,-0.30
2019-02-14T01:26:49.602Z,-0.30
2019-02-14T01:29:50.945Z,-0.40
2019-02-14T01:32:51.695Z,-0.40
2019-02-14T01:35:52.153Z,-0.50
2019-02-14T01:38:53.154Z,-0.60
2019-02-14T01:41:53.933Z,-0.50
2019-02-14T01:44:54.454Z,-0.50
2019-02-14T01:47:54.793Z,-0.50
2019-02-14T01:50:55.886Z,-0.60
2019-02-14T01:53:56.351Z,-0.60
2019-02-14T01:56:57.783Z,-0.60
2019-02-14T01:59:58.628Z,-0.70
2019-02-14T02:02:59.160Z,-0.70
2019-02-14T02:05:59.761Z,-0.70
2019-02-14T02:09:00.062Z,-0.70
2019-02-14T02:12:00.618Z,-0.70
2019-02-14T02:15:01.117Z,-0.70
2019-02-14T02:18:02.264Z,-0.80
2019-02-14T02:21:02.554Z,-0.80
2019-02-14T02:24:03.386Z,-0.80
2019-02-14T02:27:04.632Z,-0.90
2019-02-14T02:30:05.950Z,-1.00
2019-02-14T02:33:06.546Z,-1.00
2019-02-14T02:36:07.702Z,-0.90
2019-02-14T02:39:08.849Z,-0.90
2019-02-14T02:42:09.200Z,-0.90
2019-02-14T02:45:09.586Z,-1.00
2019-02-14T02:48:10.086Z,-1.00
2019-02-14T02:51:10.429Z,-1.10
2019-02-14T02:54:10.945Z,-1.10
2019-02-14T02:57:11.921Z,-1.00
2019-02-14T03:00:13.092Z,-1.00
2019-02-14T03:03:13.553Z,-1.00
2019-02-14T03:06:14.213Z,-1.10
2019-02-14T03:09:14.677Z,-1.10
2019-02-14T03:12:14.898Z,-1.10
2019-02-14T03:15:15.245Z,-1.10
2019-02-14T03:18:15.814Z,-1.20
2019-02-14T03:21:16.389Z,-1.20
2019-02-14T03:24:16.767Z,-1.10
2019-02-14T03:27:17.885Z,-1.20
2019-02-14T03:30:18.805Z,-1.20
2019-02-14T03:33:19.201Z,-1.20
2019-02-14T03:36:19.712Z,-1.20
2019-02-14T03:39:20.235Z,-1.30
2019-02-14T03:42:20.574Z,-1.30
2019-02-14T03:45:21.353Z,-1.50
2019-02-14T03:48:21.699Z,-1.40
2019-02-14T03:51:22.836Z,-1.40
2019-02-14T03:54:23.851Z,-1.40
2019-02-14T03:57:24.355Z,-1.30
2019-02-14T04:00:25.884Z,-1.40
2019-02-14T04:03:26.304Z,-1.30
2019-02-14T04:06:27.727Z,-1.40
2019-02-14T04:09:28.952Z,-1.40
2019-02-14T04:12:29.247Z,-1.50
2019-02-14T04:15:29.572Z,-1.40
2019-02-14T04:18:30.285Z,-1.40
2019-02-14T04:21:30.867Z,-1.30
2019-02-14T04:24:31.212Z,-1.30
2019-02-14T04:27:31.726Z,-1.70
2019-02-14T04:30:32.774Z,-1.60
2019-02-14T04:33:33.031Z,-1.60
2019-02-14T04:36:36.042Z,-1.60
2019-02-14T04:39:36.062Z,-1.50
2019-02-14T04:42:24.597Z,-1.60
2019-02-14T04:45:32.460Z,-1.60
2019-02-14T04:48:33.372Z,-1.60
2019-02-14T04:51:33.975Z,-1.50
2019-02-14T04:54:34.628Z,-1.80
2019-02-14T04:57:35.260Z,-1.70
2019-02-14T05:00:35.785Z,-1.60
2019-02-14T05:03:36.482Z,-1.70
2019-02-14T05:06:44.258Z,-1.70
2019-02-14T05:09:39.566Z,-1.60
2019-02-14T05:12:40.066Z,-1.60
2019-02-14T05:15:41.253Z,-1.70
2019-02-14T05:18:41.948Z,-1.70
2019-02-14T05:21:42.275Z,-1.80
2019-02-14T05:24:42.968Z,-1.80
2019-02-14T05:27:44.057Z,-1.90
2019-02-14T05:30:44.325Z,-1.90
2019-02-14T05:33:44.927Z,-1.70
2019-02-14T05:36:52.667Z,-1.70
2019-02-14T05:39:35.916Z,-1.80
2019-02-14T05:42:43.834Z,-1.80
2019-02-14T05:45:44.792Z,-1.80
2019-02-14T05:48:45.153Z,-1.90
2019-02-14T05:51:45.562Z,-2.00
2019-02-14T05:54:46.336Z,-1.90
2019-02-14T05:57:46.622Z,-1.80
2019-02-14T06:00:47.542Z,-1.80
2019-02-14T06:03:47.893Z,-1.80
2019-02-14T06:06:49.342Z,-1.80
2019-02-14T06:09:50.124Z,-1.70
2019-02-14T06:12:38.928Z,-1.70
2019-02-14T06:18:53.040Z,-1.70
2019-02-14T06:21:54.416Z,-1.80
2019-02-14T06:24:54.940Z,-1.80
2019-02-14T06:27:56.158Z,-1.90
2019-02-14T06:30:56.758Z,-1.80
2019-02-14T06:33:57.440Z,-1.90
2019-02-14T06:36:57.938Z,-1.90
2019-02-14T06:39:58.269Z,-1.90
2019-02-14T06:42:58.954Z,-1.80
2019-02-14T06:45:59.630Z,-1.80
2019-02-14T06:48:59.898Z,-1.80
2019-02-14T06:52:00.262Z,-1.70
2019-02-14T06:55:00.544Z,-1.70
2019-02-14T06:58:01.058Z,-2.00
2019-02-14T07:01:01.518Z,-1.90
2019-02-14T07:04:01.865Z,-1.70
2019-02-14T07:07:02.792Z,-1.70
2019-02-14T07:10:03.378Z,-1.60
2019-02-14T07:13:03.693Z,-1.50
2019-02-14T07:16:04.285Z,-1.50
2019-02-14T07:19:04.862Z,-1.40
2019-02-14T07:22:05.230Z,-1.50
2019-02-14T07:25:05.709Z,-1.50
2019-02-14T07:28:06.214Z,-1.30
2019-02-14T07:31:07.170Z,-1.10
2019-02-14T07:34:07.806Z,-0.50
2019-02-14T07:37:08.338Z,0.10
2019-02-14T07:40:09.185Z,0.50
2019-02-14T07:43:09.897Z,1.10
2019-02-14T07:46:10.380Z,1.80
2019-02-14T07:49:10.664Z,2.40
2019-02-14T07:52:11.553Z,2.60
2019-02-14T07:55:12.348Z,2.90
2019-02-14T07:58:12.869Z,3.30
2019-02-14T08:01:13.323Z,3.50
2019-02-14T08:04:14.140Z,3.60
2019-02-14T08:07:14.741Z,3.20
2019-02-14T08:10:15.186Z,3.10
2019-02-14T08:13:16.102Z,3.40
2019-02-14T08:16:16.511Z,4.50
2019-02-14T08:19:17.012Z,5.00
2019-02-14T08:22:18.145Z,6.00
2019-02-14T08:25:18.593Z,6.70
2019-02-14T08:28:19.389Z,7.20
2019-02-14T08:31:19.869Z,6.50
2019-02-14T08:34:20.484Z,6.80
2019-02-14T08:37:20.835Z,7.00
2019-02-14T08:40:21.290Z,6.90
2019-02-14T08:43:21.775Z,6.80
2019-02-14T08:46:22.378Z,7.10
2019-02-14T08:49:22.934Z,8.20
2019-02-14T08:52:23.753Z,7.40
2019-02-14T08:55:24.078Z,8.20
2019-02-14T08:58:24.416Z,9.20
2019-02-14T09:01:25.258Z,9.00
2019-02-14T09:04:25.812Z,10.40
2019-02-14T09:07:26.184Z,10.80
2019-02-14T09:10:26.747Z,11.00
2019-02-14T09:13:27.106Z,11.60
2019-02-14T09:16:28.869Z,12.30
2019-02-14T09:19:29.352Z,12.30
2019-02-14T09:22:29.685Z,10.80
2019-02-14T09:25:30.110Z,10.10
2019-02-14T09:28:30.417Z,9.70
2019-02-14T09:31:30.874Z,9.90
2019-02-14T09:34:31.261Z,10.20
2019-02-14T09:37:31.572Z,10.20
2019-02-14T09:40:32.755Z,11.50
2019-02-14T09:43:34.370Z,12.00
2019-02-14T09:46:35.652Z,13.00
2019-02-14T09:49:36.575Z,13.50
2019-02-14T09:52:37.735Z,14.50
2019-02-14T09:55:39.234Z,14.80
2019-02-14T09:58:40.901Z,15.30
2019-02-14T10:01:42.174Z,15.10
2019-02-14T10:04:43.678Z,14.80
2019-02-14T10:07:45.345Z,16.10
2019-02-14T10:10:48.045Z,17.20
2019-02-14T10:13:48.930Z,17.80
2019-02-14T10:16:50.575Z,17.80
2019-02-14T10:19:51.949Z,17.90
2019-02-14T10:22:53.801Z,17.80
2019-02-14T10:25:54.633Z,18.90
2019-02-14T10:28:55.662Z,22.40
2019-02-14T10:31:56.936Z,22.70
2019-02-14T10:34:57.381Z,22.80
2019-02-14T10:37:58.616Z,23.00
2019-02-14T10:40:59.298Z,23.90
2019-02-14T10:44:00.012Z,25.10
2019-02-14T10:47:00.373Z,24.30
2019-02-14T10:50:01.664Z,25.10
2019-02-14T10:53:03.509Z,22.90
2019-02-14T10:56:05.415Z,21.10
2019-02-14T10:59:06.672Z,19.20
2019-02-14T11:02:07.977Z,20.10
2019-02-14T11:05:09.259Z,21.00
2019-02-14T11:08:10.400Z,21.20
2019-02-14T11:11:11.449Z,21.30
2019-02-14T11:14:12.750Z,22.00
2019-02-14T11:17:14.094Z,22.80
2019-02-14T11:20:17.767Z,22.70
2019-02-14T11:23:19.101Z,21.50
2019-02-14T11:26:20.852Z,20.00
2019-02-14T11:29:22.630Z,19.30
2019-02-14T11:32:23.584Z,19.70
2019-02-14T11:35:25.223Z,26.40
2019-02-14T11:38:26.787Z,23.90
2019-02-14T11:41:27.914Z,22.80
2019-02-14T11:44:29.329Z,22.30
2019-02-14T11:47:30.963Z,21.60
2019-02-14T11:50:32.831Z,21.80
2019-02-14T11:53:34.253Z,20.60
2019-02-14T11:56:36.039Z,22.40
2019-02-14T11:59:37.149Z,22.80
2019-02-14T12:02:38.377Z,24.00
2019-02-14T12:05:39.909Z,24.40
2019-02-14T12:08:50.254Z,25.00
2019-02-14T12:11:43.740Z,24.40
2019-02-14T12:14:44.932Z,25.30
2019-02-14T12:17:45.762Z,25.60
2019-02-14T12:20:48.016Z,24.00
2019-02-14T12:23:49.481Z,24.50
2019-02-14T12:26:50.798Z,22.40
2019-02-14T12:29:51.606Z,22.50
2019-02-14T12:32:52.450Z,22.60
2019-02-14T12:35:53.166Z,22.70
2019-02-14T12:38:54.064Z,24.70
2019-02-14T12:41:55.081Z,26.40
2019-02-14T12:44:55.702Z,25.10
2019-02-14T12:47:57.075Z,25.50
2019-02-14T12:50:58.458Z,25.20
2019-02-14T12:53:59.653Z,24.80
2019-02-14T12:57:00.998Z,25.20
2019-02-14T13:00:02.085Z,23.80
2019-02-14T13:03:02.685Z,23.50
2019-02-14T13:06:03.500Z,24.90
2019-02-14T13:09:04.810Z,24.60
2019-02-14T13:12:06.360Z,24.40
2019-02-14T13:15:07.590Z,24.30
2019-02-14T13:18:08.235Z,22.90
2019-02-14T13:21:09.464Z,23.60
2019-02-14T13:24:10.855Z,23.20
2019-02-14T13:27:12.582Z,22.70
2019-02-14T13:30:13.763Z,24.00
2019-02-14T13:33:15.279Z,23.30
2019-02-14T13:36:16.757Z,23.50
2019-02-14T13:39:18.194Z,22.50
2019-02-14T13:42:20.458Z,22.70
2019-02-14T13:45:22.060Z,22.50
2019-02-14T13:48:23.647Z,21.30
2019-02-14T13:51:25.137Z,21.10
2019-02-14T13:54:26.018Z,21.20
2019-02-14T13:57:27.544Z,21.70
2019-02-14T14:00:29.241Z,21.30
2019-02-14T14:03:18.402Z,22.00
2019-02-14T14:06:26.938Z,22.20
2019-02-14T14:09:28.814Z,22.70
2019-02-14T14:12:30.499Z,21.70
2019-02-14T14:15:19.630Z,22.00
2019-02-14T14:21:50.414Z,23.00
2019-02-14T14:24:51.638Z,21.80
2019-02-14T14:27:53.229Z,21.00
2019-02-14T14:30:54.617Z,20.40
2019-02-14T14:33:55.717Z,19.60
2019-02-14T14:36:57.573Z,19.20
2019-02-14T14:39:58.757Z,19.20
2019-02-14T14:43:04.853Z,19.90
2019-02-14T14:46:07.686Z,21.60
2019-02-14T14:49:09.394Z,22.50
2019-02-14T14:52:11.030Z,22.30
2019-02-14T14:55:12.640Z,22.10
2019-02-14T14:58:14.350Z,21.80
2019-02-14T15:01:15.946Z,20.40
2019-02-14T15:04:17.748Z,19.80
2019-02-14T15:07:19.270Z,19.10
2019-02-14T15:10:20.872Z,19.10
2019-02-14T15:13:22.717Z,18.90
2019-02-14T15:16:24.091Z,18.50
2019-02-14T15:19:24.874Z,17.70
2019-02-14T15:22:25.839Z,17.30
2019-02-14T15:25:27.190Z,17.00
2019-02-14T15:28:28.812Z,17.20
2019-02-14T15:31:30.511Z,17.10
2019-02-14T15:37:17.853Z,16.80
2019-02-14T15:40:18.815Z,16.40
2019-02-14T15:43:19.736Z,16.10
2019-02-14T15:46:20.919Z,15.70
2019-02-14T15:49:23.123Z,16.10
2019-02-14T15:52:24.786Z,16.10
2019-02-14T15:55:25.969Z,15.70
2019-02-14T15:58:28.633Z,15.40
2019-02-14T16:01:29.878Z,15.30
2019-02-14T16:04:31.373Z,15.10
2019-02-14T16:07:32.583Z,14.80
2019-02-14T16:10:33.013Z,14.10
2019-02-14T16:13:33.758Z,13.60
2019-02-14T16:16:34.383Z,12.80
2019-02-14T16:19:36.529Z,12.20
2019-02-14T16:22:37.414Z,12.40
2019-02-14T16:25:38.780Z,12.40
2019-02-14T16:28:39.860Z,11.40
2019-02-14T16:31:41.081Z,10.80
2019-02-14T16:34:41.532Z,10.40
2019-02-14T16:37:42.649Z,11.00
2019-02-14T16:40:38.226Z,11.00
2019-02-14T16:43:40.905Z,10.90
2019-02-14T16:46:42.003Z,10.80
2019-02-14T16:49:42.593Z,10.60
2019-02-14T16:52:42.954Z,10.40
2019-02-14T16:55:44.132Z,10.30
2019-02-14T16:58:33.125Z,10.60
2019-02-14T17:01:41.315Z,10.50
2019-02-14T17:04:42.674Z,10.50
2019-02-14T17:07:43.450Z,10.50
2019-02-14T17:10:44.735Z,10.40
2019-02-14T17:13:45.284Z,10.30
2019-02-14T17:16:34.328Z,10.10
2019-02-14T17:19:42.186Z,10.00
2019-02-14T17:22:42.825Z,9.30
2019-02-14T17:25:44.055Z,9.00
2019-02-14T17:28:44.354Z,8.70
2019-02-14T17:31:44.738Z,8.50
2019-02-14T17:34:47.179Z,8.30
2019-02-14T17:37:47.484Z,8.00
2019-02-14T17:40:36.130Z,7.90
2019-02-14T17:43:44.069Z,7.70
2019-02-14T17:46:44.913Z,7.60
2019-02-14T17:49:45.581Z,7.50
2019-02-14T17:52:46.533Z,7.20
2019-02-14T17:55:47.184Z,7.20
2019-02-14T17:58:48.102Z,7.10
2019-02-14T18:01:36.753Z,7.10
2019-02-14T18:04:44.723Z,6.80
2019-02-14T18:07:45.071Z,6.50
2019-02-14T18:10:45.488Z,6.80
2019-02-14T18:13:45.960Z,5.80
2019-02-14T18:16:46.517Z,6.10
2019-02-14T18:19:47.167Z,6.40
2019-02-14T18:22:47.857Z,6.30
2019-02-14T18:25:48.227Z,6.20
2019-02-14T18:28:48.635Z,6.20
2019-02-14T18:31:37.162Z,6.00
2019-02-14T18:34:45.136Z,6.00
2019-02-14T18:37:46.037Z,5.90
2019-02-14T18:40:46.546Z,5.80
2019-02-14T18:43:47.100Z,5.70
2019-02-14T18:46:47.516Z,5.60
2019-02-14T18:49:48.798Z,5.50
2019-02-14T18:52:49.294Z,5.50
2019-02-14T18:55:50.007Z,5.50
2019-02-14T18:58:38.521Z,5.30
2019-02-14T19:04:52.436Z,5.00
2019-02-14T19:07:41.286Z,4.90
2019-02-14T19:10:42.255Z,4.90
2019-02-14T19:13:43.616Z,4.80
2019-02-14T19:16:44.038Z,4.80
2019-02-14T19:19:44.347Z,4.70
2019-02-14T19:22:44.764Z,4.70
2019-02-14T19:25:45.928Z,4.60
2019-02-14T19:28:46.263Z,4.90
2019-02-14T19:31:46.598Z,4.90
2019-02-14T19:34:47.092Z,5.00
2019-02-14T19:37:47.745Z,5.00
2019-02-14T19:40:48.290Z,5.00
2019-02-14T19:43:49.279Z,4.80
2019-02-14T19:46:50.128Z,4.70
2019-02-14T19:49:51.237Z,4.70
2019-02-14T19:52:52.093Z,4.60
2019-02-14T19:55:52.544Z,4.60
2019-02-14T19:58:53.003Z,4.50
2019-02-14T20:01:53.477Z,4.40
2019-02-14T20:04:53.987Z,4.30
2019-02-14T20:07:54.432Z,4.20
2019-02-14T20:10:55.164Z,4.30
2019-02-14T20:13:49.484Z,4.20
2019-02-14T20:16:53.517Z,4.10
2019-02-14T20:19:53.890Z,4.00
2019-02-14T20:22:54.806Z,4.00
2019-02-14T20:25:55.482Z,3.90
2019-02-14T20:28:56.694Z,3.90
2019-02-14T20:31:57.372Z,4.00
2019-02-14T20:34:45.914Z,3.80
2019-02-14T20:37:53.991Z,3.80
2019-02-14T20:40:54.748Z,3.80
2019-02-14T20:43:55.151Z,3.80
2019-02-14T20:46:55.684Z,3.70
2019-02-14T20:49:56.997Z,3.70
2019-02-14T20:52:57.444Z,3.40
2019-02-14T20:55:58.005Z,3.50
2019-02-14T20:58:59.352Z,3.50
2019-02-14T21:01:48.113Z,3.50
2019-02-14T21:04:56.046Z,3.20
2019-02-14T21:07:57.320Z,3.30
2019-02-14T21:10:58.045Z,3.20
2019-02-14T21:13:58.351Z,3.10
2019-02-14T21:16:58.723Z,3.10
2019-02-14T21:19:59.038Z,3.10
2019-02-14T21:22:59.493Z,3.00
2019-02-14T21:26:00.436Z,3.00
2019-02-14T21:29:01.390Z,2.50
2019-02-14T21:32:01.914Z,2.70
2019-02-14T21:35:03.085Z,2.70
2019-02-14T21:38:04.270Z,2.70
2019-02-14T21:40:52.998Z,2.80
2019-02-14T21:44:00.854Z,2.70
2019-02-14T21:47:01.722Z,2.70
2019-02-14T21:50:02.331Z,2.70
2019-02-14T21:53:02.741Z,2.70
2019-02-14T21:56:03.507Z,2.60
2019-02-14T21:59:04.617Z,2.40
2019-02-14T22:01:53.555Z,2.50
2019-02-14T22:05:01.955Z,2.90
2019-02-14T22:08:04.367Z,3.20
2019-02-14T22:11:05.369Z,3.50
2019-02-14T22:14:06.997Z,3.50
2019-02-14T22:16:56.079Z,3.60
2019-02-14T22:23:31.284Z,3.60
2019-02-14T22:26:33.720Z,3.60
2019-02-14T22:29:35.084Z,3.20
2019-02-14T22:32:36.347Z,3.40
2019-02-14T22:35:37.390Z,3.40
2019-02-14T22:38:38.117Z,3.40
2019-02-14T22:41:38.756Z,3.40
2019-02-14T22:44:39.846Z,3.40
2019-02-14T22:47:40.545Z,3.40
2019-02-14T22:50:41.549Z,3.40
2019-02-14T22:53:43.336Z,3.30
2019-02-14T22:56:44.802Z,3.20
2019-02-14T22:59:46.436Z,3.30
2019-02-14T23:02:47.331Z,3.30
2019-02-14T23:05:48.258Z,3.10
2019-02-14T23:08:49.255Z,3.10
2019-02-14T23:11:50.825Z,3.10
2019-02-14T23:14:51.990Z,3.00
2019-02-14T23:17:52.878Z,3.00
2019-02-14T23:20:54.050Z,3.00
2019-02-14T23:23:55.211Z,3.00
2019-02-14T23:26:56.111Z,2.90
2019-02-14T23:29:57.168Z,2.90
2019-02-14T23:32:58.784Z,2.70
2019-02-14T23:35:59.556Z,2.80
2019-02-14T23:39:00.343Z,2.70
2019-02-14T23:42:00.910Z,2.70
2019-02-14T23:45:01.593Z,2.70
2019-02-14T23:48:03.366Z,2.60
2019-02-14T23:51:04.440Z,2.60
2019-02-14T23:54:05.967Z,2.60
2019-02-14T23:57:07.108Z,2.50
